Time;durP1;ratioP1;P1;durP2;ratioP2;P2;SDS_P1;SDS_P2;PMS_P1;PMS_P2;Temp;Humidity;BMP_temperature;BMP_pressure;BME280_temperature;BME280_humidity;BME280_pressure;Samples;Min_cycle;Max_cycle;Signal;HPM_P1;HPM_P2
2021/06/14 00:00:56;;;;;;;5.90;2.08;;;19.60;57.60;;;;;;5051307;28;20421;-78
2021/06/14 00:03:22;;;;;;;5.32;2.05;;;19.60;57.60;;;;;;5051009;28;20045;-78
2021/06/14 00:05:48;;;;;;;5.20;2.38;;;19.60;57.80;;;;;;5052169;28;20025;-78
2021/06/14 00:08:17;;;;;;;3.97;2.15;;;19.50;57.90;;;;;;5050235;28;20025;-78
2021/06/14 00:10:43;;;;;;;6.80;2.78;;;19.50;58.10;;;;;;5050890;28;20021;-78
2021/06/14 00:13:18;;;;;;;4.28;2.53;;;19.50;58.10;;;;;;5051502;28;20021;-79
2021/06/14 00:15:45;;;;;;;3.90;2.05;;;19.40;58.20;;;;;;5051817;28;20358;-78
2021/06/14 00:18:11;;;;;;;6.97;2.35;;;19.40;58.30;;;;;;5049874;28;20028;-78
2021/06/14 00:20:38;;;;;;;6.07;2.22;;;19.40;58.20;;;;;;5050331;28;20465;-78
2021/06/14 00:23:09;;;;;;;7.25;2.40;;;19.40;58.20;;;;;;5050127;28;20029;-79
2021/06/14 00:25:36;;;;;;;5.13;2.42;;;19.40;58.20;;;;;;5051645;28;20029;-77
2021/06/14 00:28:02;;;;;;;5.13;2.40;;;19.30;58.20;;;;;;5050102;28;20036;-78
2021/06/14 00:30:34;;;;;;;6.20;2.53;;;19.30;58.30;;;;;;5050592;28;20029;-79
2021/06/14 00:32:59;;;;;;;5.63;2.35;;;19.30;58.50;;;;;;5050195;28;20074;-78
2021/06/14 00:35:25;;;;;;;5.13;2.13;;;19.30;58.70;;;;;;5051864;28;20104;-78
2021/06/14 00:37:51;;;;;;;3.95;2.03;;;19.20;58.90;;;;;;5050668;28;20112;-78
2021/06/14 00:40:17;;;;;;;5.05;2.50;;;19.20;58.90;;;;;;5051369;28;20074;-78
2021/06/14 00:42:44;;;;;;;4.70;2.55;;;19.20;58.90;;;;;;5052057;28;20044;-77
2021/06/14 00:45:15;;;;;;;5.05;2.00;;;19.20;59.60;;;;;;5050113;28;20029;-79
2021/06/14 00:47:42;;;;;;;4.65;2.20;;;19.10;58.90;;;;;;5052147;28;20033;-78
2021/06/14 00:50:08;;;;;;;3.95;2.28;;;19.10;59.10;;;;;;5050968;28;20530;-79
2021/06/14 00:52:34;;;;;;;6.97;2.28;;;19.10;59.20;;;;;;5051754;28;20045;-77
2021/06/14 00:55:00;;;;;;;5.10;2.05;;;19.10;59.30;;;;;;5049841;28;20212;-79
2021/06/14 00:57:26;;;;;;;3.95;2.00;;;19.00;59.40;;;;;;5050383;28;20116;-78
2021/06/14 00:59:52;;;;;;;5.63;2.40;;;19.00;59.60;;;;;;5051712;28;20441;-78
2021/06/14 01:02:17;;;;;;;5.78;1.92;;;19.00;59.70;;;;;;5049881;28;20033;-78
2021/06/14 01:04:43;;;;;;;4.53;2.45;;;19.00;59.90;;;;;;5054962;28;20025;-77
2021/06/14 01:07:10;;;;;;;5.47;2.38;;;18.90;59.90;;;;;;5055050;28;20033;-78
2021/06/14 01:09:35;;;;;;;5.18;2.55;;;18.90;59.90;;;;;;5055556;28;20032;-78
2021/06/14 01:12:12;;;;;;;7.75;2.40;;;18.90;60.10;;;;;;5053592;28;20021;-79
2021/06/14 01:14:47;;;;;;;5.30;2.17;;;18.90;60.30;;;;;;5055691;28;20040;-79
2021/06/14 01:17:27;;;;;;;5.32;2.20;;;18.80;60.20;;;;;;5053448;28;20025;-78
2021/06/14 01:20:44;;;;;;;5.13;2.25;;;18.80;60.10;;;;;;5054056;28;20476;-78
2021/06/14 01:23:34;;;;;;;5.35;2.45;;;18.80;60.40;;;;;;5027846;28;20033;-78
2021/06/14 01:26:09;;;;;;;4.07;2.38;;;18.70;60.60;;;;;;5054734;28;20025;-77
2021/06/14 01:28:37;;;;;;;4.72;2.40;;;18.70;60.80;;;;;;5055266;28;20027;-79
2021/06/14 01:31:04;;;;;;;5.82;2.15;;;18.70;61.10;;;;;;5053270;28;20074;-78
2021/06/14 01:33:33;;;;;;;4.78;2.35;;;18.70;61.10;;;;;;5053964;28;20021;-78
2021/06/14 01:36:10;;;;;;;5.45;2.20;;;18.70;61.10;;;;;;5055146;28;20036;-79
2021/06/14 01:38:39;;;;;;;4.35;2.30;;;18.60;61.20;;;;;;5053861;28;20021;-76
2021/06/14 01:41:07;;;;;;;4.85;2.00;;;18.60;61.30;;;;;;5052993;28;20162;-77
2021/06/14 01:43:36;;;;;;;5.00;2.17;;;18.60;61.20;;;;;;5056518;28;20029;-79
2021/06/14 01:46:11;;;;;;;3.72;2.10;;;18.60;61.30;;;;;;5054311;28;20029;-78
2021/06/14 01:48:39;;;;;;;4.32;2.10;;;18.60;61.20;;;;;;5054636;28;20029;-77
2021/06/14 01:51:08;;;;;;;4.13;1.70;;;18.60;61.30;;;;;;5054159;28;20071;-78
2021/06/14 01:53:35;;;;;;;5.13;1.85;;;18.50;61.20;;;;;;5054799;28;20013;-78
2021/06/14 01:56:01;;;;;;;7.13;2.10;;;18.50;61.30;;;;;;5053975;28;20032;-76
2021/06/14 01:58:29;;;;;;;4.10;1.83;;;18.50;61.30;;;;;;5054551;28;20078;-77
2021/06/14 02:00:55;;;;;;;7.95;2.30;;;18.50;61.40;;;;;;5054574;28;20028;-78
2021/06/14 02:03:22;;;;;;;4.38;2.25;;;18.50;61.40;;;;;;5054158;28;20029;-77
2021/06/14 02:05:48;;;;;;;5.07;1.92;;;18.50;61.60;;;;;;5052997;28;20478;-78
2021/06/14 02:08:17;;;;;;;6.15;2.63;;;18.40;61.70;;;;;;5053732;28;20039;-76
2021/06/14 02:10:43;;;;;;;5.88;2.10;;;18.50;61.70;;;;;;5052886;28;20366;-77
2021/06/14 02:13:10;;;;;;;3.85;2.17;;;18.40;61.80;;;;;;5053634;28;20104;-78
2021/06/14 02:15:36;;;;;;;3.92;1.98;;;18.40;61.80;;;;;;5052724;28;20056;-77
2021/06/14 02:18:03;;;;;;;4.13;1.63;;;18.40;61.90;;;;;;5053643;28;20061;-78
2021/06/14 02:20:29;;;;;;;4.30;1.95;;;18.40;61.90;;;;;;5053033;28;20078;-76
2021/06/14 02:22:55;;;;;;;3.00;2.00;;;18.40;62.00;;;;;;5053742;28;20032;-78
2021/06/14 02:25:21;;;;;;;3.60;1.98;;;18.30;62.00;;;;;;5053452;28;20021;-77
2021/06/14 02:27:47;;;;;;;3.92;2.20;;;18.30;62.20;;;;;;5053506;28;20036;-77
2021/06/14 02:30:17;;;;;;;4.18;2.25;;;18.20;62.20;;;;;;5052114;28;20024;-77
2021/06/14 02:32:44;;;;;;;4.72;2.35;;;18.20;62.30;;;;;;5052673;28;20046;-77
2021/06/14 02:35:11;;;;;;;4.43;2.22;;;18.20;62.30;;;;;;5051885;28;20033;-77
2021/06/14 02:37:43;;;;;;;3.70;2.17;;;18.20;62.40;;;;;;5053120;28;20124;-76
2021/06/14 02:40:09;;;;;;;6.85;2.40;;;18.20;62.60;;;;;;5053224;28;20021;-77
2021/06/14 02:42:37;;;;;;;5.90;2.53;;;18.10;62.60;;;;;;5053901;28;20052;-77
2021/06/14 02:45:05;;;;;;;5.70;2.40;;;18.10;62.70;;;;;;5052259;28;20029;-77
2021/06/14 02:47:31;;;;;;;5.70;2.30;;;18.10;62.90;;;;;;5053865;28;20029;-78
2021/06/14 02:49:58;;;;;;;4.63;2.10;;;18.10;63.00;;;;;;5052359;28;20044;-77
2021/06/14 02:52:26;;;;;;;6.80;2.50;;;18.10;63.10;;;;;;5052924;28;20029;-77
2021/06/14 02:54:57;;;;;;;4.75;2.25;;;18.10;63.20;;;;;;5052118;28;20469;-78
2021/06/14 02:57:24;;;;;;;4.80;2.17;;;18.10;63.20;;;;;;5053091;28;20104;-78
2021/06/14 02:59:52;;;;;;;6.80;2.70;;;18.10;63.30;;;;;;5052014;28;20036;-77
2021/06/14 03:02:25;;;;;;;6.13;2.55;;;18.00;63.30;;;;;;5051368;28;20032;-76
2021/06/14 03:04:52;;;;;;;5.40;2.70;;;18.00;63.30;;;;;;5053142;28;20052;-77
2021/06/14 03:07:28;;;;;;;4.70;2.03;;;18.00;63.50;;;;;;5052681;28;20079;-76
2021/06/14 03:09:54;;;;;;;4.75;2.60;;;18.00;63.60;;;;;;5053275;28;20029;-77
2021/06/14 03:12:21;;;;;;;5.95;2.60;;;18.00;63.70;;;;;;5052556;28;20364;-77
2021/06/14 03:14:47;;;;;;;5.13;2.30;;;17.90;63.50;;;;;;5051800;28;20025;-77
2021/06/14 03:17:14;;;;;;;9.23;2.60;;;17.90;63.70;;;;;;5052408;28;20021;-77
2021/06/14 03:19:40;;;;;;;4.45;2.20;;;17.90;63.80;;;;;;5052682;28;20438;-76
2021/06/14 03:22:09;;;;;;;5.97;2.78;;;17.90;63.80;;;;;;5052626;28;20025;-77
2021/06/14 03:24:36;;;;;;;5.15;2.58;;;17.90;64.00;;;;;;5051574;28;20033;-76
2021/06/14 03:27:03;;;;;;;6.20;2.70;;;17.90;64.00;;;;;;5050833;28;20389;-77
2021/06/14 03:29:29;;;;;;;4.85;2.60;;;17.90;64.20;;;;;;5050925;28;20021;-77
2021/06/14 03:31:56;;;;;;;4.47;2.47;;;17.90;64.30;;;;;;5052691;28;20036;-77
2021/06/14 03:34:24;;;;;;;7.35;2.75;;;17.90;64.30;;;;;;5051834;28;20100;-77
2021/06/14 03:36:49;;;;;;;5.78;3.13;;;17.80;64.40;;;;;;5051287;28;20021;-77
2021/06/14 03:39:19;;;;;;;4.68;2.72;;;17.80;64.40;;;;;;5052082;28;20036;-78
2021/06/14 03:41:48;;;;;;;8.80;3.03;;;17.90;64.80;;;;;;5051030;28;20104;-77
2021/06/14 03:44:16;;;;;;;6.30;2.72;;;17.80;64.70;;;;;;5051942;28;20018;-77
2021/06/14 03:46:42;;;;;;;5.68;2.70;;;17.80;64.80;;;;;;5052373;28;20027;-76
2021/06/14 03:49:08;;;;;;;5.07;2.63;;;17.80;64.70;;;;;;5052342;28;20025;-78
2021/06/14 03:51:34;;;;;;;8.32;2.80;;;17.80;64.80;;;;;;5052394;28;20017;-78
2021/06/14 03:54:00;;;;;;;5.93;2.70;;;17.80;64.90;;;;;;5052371;28;20025;-76
2021/06/14 03:56:31;;;;;;;6.43;2.78;;;17.80;65.00;;;;;;5051766;28;20387;-76
2021/06/14 03:58:58;;;;;;;6.70;2.70;;;17.80;65.10;;;;;;5050970;28;20017;-77
2021/06/14 04:01:24;;;;;;;5.57;2.88;;;17.80;65.20;;;;;;5051352;28;20103;-77
2021/06/14 04:06:36;;;;;;;6.18;2.65;;;17.80;65.40;;;;;;5040737;28;20029;-77
2021/06/14 04:09:02;;;;;;;6.65;2.70;;;17.80;65.50;;;;;;5052154;28;20027;-76
2021/06/14 04:11:28;;;;;;;5.30;2.95;;;17.80;65.50;;;;;;5051535;28;20017;-77
2021/06/14 04:13:54;;;;;;;5.05;3.22;;;17.80;65.60;;;;;;5050768;28;20021;-78
2021/06/14 04:16:21;;;;;;;6.90;3.08;;;17.80;65.70;;;;;;5050059;28;20025;-78
2021/06/14 04:18:47;;;;;;;8.93;2.90;;;17.80;65.80;;;;;;5050398;28;20033;-76
2021/06/14 04:21:12;;;;;;;8.02;3.45;;;17.80;66.10;;;;;;5051327;28;20048;-77
2021/06/14 04:23:39;;;;;;;10.60;5.05;;;17.80;66.30;;;;;;5050644;28;20428;-77
2021/06/14 04:26:05;;;;;;;8.38;3.67;;;17.80;66.30;;;;;;5051910;28;20487;-77
2021/06/14 04:28:30;;;;;;;8.68;3.83;;;17.80;66.20;;;;;;5050911;28;20052;-78
2021/06/14 04:30:56;;;;;;;7.32;3.60;;;17.80;66.30;;;;;;5051693;28;20453;-77
2021/06/14 04:33:21;;;;;;;7.72;3.38;;;17.90;66.40;;;;;;5049792;28;20031;-76
2021/06/14 04:35:47;;;;;;;6.63;3.60;;;17.90;66.40;;;;;;5052047;28;20033;-77
2021/06/14 04:38:13;;;;;;;8.10;3.65;;;17.90;66.60;;;;;;5053777;28;20021;-78
2021/06/14 04:40:39;;;;;;;7.53;3.50;;;17.90;66.60;;;;;;5056856;28;20074;-77
2021/06/14 04:43:04;;;;;;;7.93;3.58;;;18.00;67.40;;;;;;5058017;28;20024;-77
2021/06/14 04:45:30;;;;;;;9.23;3.90;;;17.90;66.80;;;;;;5048361;28;20033;-78
2021/06/14 04:47:56;;;;;;;5.53;3.10;;;18.00;66.80;;;;;;5045676;28;20033;-78
2021/06/14 04:50:22;;;;;;;6.57;3.28;;;18.00;66.80;;;;;;5055970;28;20032;-76
2021/06/14 04:52:47;;;;;;;6.25;3.05;;;18.10;66.80;;;;;;5057291;28;20021;-77
2021/06/14 04:55:13;;;;;;;6.20;3.30;;;18.00;66.80;;;;;;5057809;28;20452;-79
2021/06/14 04:57:39;;;;;;;10.10;3.65;;;18.10;66.90;;;;;;5057977;28;20345;-77
2021/06/14 05:00:07;;;;;;;9.50;3.80;;;18.10;66.80;;;;;;5057703;28;20025;-76
2021/06/14 05:02:33;;;;;;;7.15;3.55;;;18.10;66.90;;;;;;5057488;28;20025;-77
2021/06/14 05:04:58;;;;;;;6.80;3.53;;;18.10;66.90;;;;;;5058153;28;20457;-77
2021/06/14 05:07:24;;;;;;;7.82;3.65;;;18.20;67.00;;;;;;5057505;28;20503;-77
2021/06/14 05:09:52;;;;;;;8.32;3.22;;;18.20;67.00;;;;;;5058392;28;20437;-76
2021/06/14 05:12:18;;;;;;;7.32;3.58;;;18.20;67.10;;;;;;5056341;28;20021;-76
2021/06/14 05:14:43;;;;;;;7.18;3.63;;;18.20;67.00;;;;;;5057200;28;20333;-77
2021/06/14 05:17:10;;;;;;;7.38;3.78;;;18.20;67.00;;;;;;5056620;28;20480;-76
2021/06/14 05:19:36;;;;;;;6.93;3.60;;;18.30;67.00;;;;;;5057278;28;20032;-77
2021/06/14 05:22:04;;;;;;;7.10;3.53;;;18.30;66.90;;;;;;5054940;28;20464;-74
2021/06/14 05:24:30;;;;;;;8.77;3.63;;;18.30;66.90;;;;;;5055281;28;20123;-76
2021/06/14 05:26:56;;;;;;;7.57;3.40;;;18.30;66.80;;;;;;5054380;28;20124;-75
2021/06/14 05:29:22;;;;;;;8.43;3.50;;;18.40;66.80;;;;;;5054983;28;20463;-76
2021/06/14 05:31:47;;;;;;;7.97;3.33;;;18.40;66.90;;;;;;5055668;28;20098;-76
2021/06/14 05:34:13;;;;;;;9.38;3.58;;;18.50;66.90;;;;;;5053752;28;20036;-77
2021/06/14 05:36:38;;;;;;;7.95;3.25;;;18.40;66.80;;;;;;5054830;28;20017;-78
2021/06/14 05:39:04;;;;;;;6.68;3.08;;;18.50;66.70;;;;;;5054392;28;20119;-76
2021/06/14 05:41:31;;;;;;;6.32;3.10;;;18.50;66.70;;;;;;5053421;28;20129;-75
2021/06/14 05:43:56;;;;;;;7.97;3.33;;;18.50;66.70;;;;;;5055635;28;20116;-75
2021/06/14 05:46:22;;;;;;;6.55;3.13;;;18.60;66.40;;;;;;5053314;28;20532;-75
2021/06/14 05:48:48;;;;;;;5.55;2.60;;;18.60;66.00;;;;;;5051970;28;20029;-76
2021/06/14 05:51:13;;;;;;;6.65;3.33;;;18.70;65.70;;;;;;5050640;28;20354;-76
2021/06/14 05:53:39;;;;;;;6.03;2.83;;;18.70;65.10;;;;;;5051631;28;20017;-76
2021/06/14 05:56:05;;;;;;;8.13;3.40;;;18.70;64.60;;;;;;5052319;28;20025;-75
2021/06/14 05:58:30;;;;;;;7.10;3.92;;;18.80;64.70;;;;;;5051478;28;20036;-76
2021/06/14 06:00:56;;;;;;;5.47;2.40;;;18.80;64.60;;;;;;5051754;28;20032;-76
2021/06/14 06:03:22;;;;;;;7.05;2.92;;;18.90;64.50;;;;;;5051434;28;20037;-76
2021/06/14 06:05:47;;;;;;;7.95;3.42;;;18.90;64.60;;;;;;5051820;28;20025;-76
2021/06/14 06:08:13;;;;;;;6.85;2.90;;;18.90;64.70;;;;;;5050651;28;20029;-76
2021/06/14 06:10:39;;;;;;;6.18;2.95;;;18.90;64.90;;;;;;5050181;28;20170;-76
2021/06/14 06:13:04;;;;;;;7.82;3.15;;;19.00;64.70;;;;;;5050244;28;20430;-76
2021/06/14 06:15:30;;;;;;;8.25;3.33;;;19.00;64.40;;;;;;5049964;28;20388;-76
2021/06/14 06:17:56;;;;;;;6.72;3.38;;;19.00;64.20;;;;;;5051995;28;20025;-76
2021/06/14 06:20:22;;;;;;;8.02;3.60;;;19.10;64.10;;;;;;5051215;28;20040;-76
2021/06/14 06:22:48;;;;;;;6.75;3.13;;;19.10;64.10;;;;;;5051849;28;20454;-76
2021/06/14 06:25:20;;;;;;;6.28;2.75;;;19.10;64.30;;;;;;5050361;28;20031;-77
2021/06/14 06:27:47;;;;;;;6.47;3.15;;;19.20;64.60;;;;;;5051289;28;20025;-75
2021/06/14 06:30:15;;;;;;;6.28;3.30;;;19.20;64.40;;;;;;5050262;28;20052;-76
2021/06/14 06:32:42;;;;;;;5.57;2.58;;;19.20;64.60;;;;;;5049704;28;20108;-77
2021/06/14 06:35:08;;;;;;;7.90;3.58;;;19.20;64.60;;;;;;5051635;28;20029;-76
2021/06/14 06:37:34;;;;;;;9.45;3.30;;;19.30;64.70;;;;;;5051064;28;20151;-76
2021/06/14 06:40:00;;;;;;;8.43;3.22;;;19.30;64.80;;;;;;5049599;28;20035;-75
2021/06/14 06:42:25;;;;;;;6.32;2.95;;;19.30;64.80;;;;;;5049237;28;20401;-77
2021/06/14 06:44:52;;;;;;;8.63;3.45;;;19.40;64.80;;;;;;5051297;28;20130;-75
2021/06/14 06:47:18;;;;;;;6.57;3.15;;;19.40;64.70;;;;;;5050011;28;20021;-75
2021/06/14 06:49:43;;;;;;;5.75;2.80;;;19.40;64.60;;;;;;5049333;28;20040;-75
2021/06/14 06:52:11;;;;;;;8.60;3.20;;;19.50;64.80;;;;;;5050778;28;20053;-76
2021/06/14 06:54:37;;;;;;;9.82;3.28;;;19.50;64.80;;;;;;5049317;28;20508;-75
2021/06/14 06:57:03;;;;;;;5.80;2.47;;;19.50;64.90;;;;;;5049830;28;20317;-76
2021/06/14 06:59:29;;;;;;;6.35;3.13;;;19.50;64.90;;;;;;5050424;28;20051;-76
2021/06/14 07:01:54;;;;;;;4.13;2.30;;;19.60;64.80;;;;;;5048583;28;20457;-76
2021/06/14 07:04:20;;;;;;;6.97;2.90;;;19.60;64.90;;;;;;5050997;28;20028;-75
2021/06/14 07:06:46;;;;;;;5.82;3.00;;;19.60;65.00;;;;;;5049576;28;20093;-76
2021/06/14 07:09:12;;;;;;;7.05;3.00;;;19.70;65.10;;;;;;5049629;28;20029;-76
2021/06/14 07:11:38;;;;;;;6.53;2.83;;;19.70;65.10;;;;;;5048915;28;20040;-75
2021/06/14 07:14:04;;;;;;;8.07;2.83;;;19.70;65.10;;;;;;5050569;28;20029;-76
2021/06/14 07:16:30;;;;;;;4.78;2.50;;;19.70;64.90;;;;;;5050372;28;20056;-75
2021/06/14 07:18:55;;;;;;;6.80;2.63;;;19.80;64.90;;;;;;5048961;28;20120;-76
2021/06/14 07:21:22;;;;;;;5.47;2.85;;;19.80;64.80;;;;;;5050738;28;20108;-75
2021/06/14 07:23:48;;;;;;;3.45;2.22;;;19.90;64.60;;;;;;5048782;28;20112;-76
2021/06/14 07:26:14;;;;;;;5.57;2.42;;;19.90;64.60;;;;;;5049217;28;20115;-77
2021/06/14 07:28:40;;;;;;;4.43;2.35;;;19.90;64.50;;;;;;5050038;28;20111;-76
2021/06/14 07:31:06;;;;;;;7.15;2.30;;;20.00;64.30;;;;;;5048944;28;20051;-76
2021/06/14 07:33:33;;;;;;;8.40;2.97;;;20.00;64.10;;;;;;5049730;28;20059;-75
2021/06/14 07:35:59;;;;;;;8.38;3.15;;;20.10;64.10;;;;;;5050460;28;20123;-76
2021/06/14 07:38:25;;;;;;;7.05;3.15;;;20.10;64.10;;;;;;5049139;28;20338;-76
2021/06/14 07:40:51;;;;;;;6.72;3.30;;;20.20;63.90;;;;;;5049109;28;20450;-76
2021/06/14 07:43:17;;;;;;;5.85;2.75;;;20.20;63.20;;;;;;5049974;28;20590;-77
2021/06/14 07:45:45;;;;;;;6.13;2.92;;;20.20;63.10;;;;;;5049034;28;20052;-75
2021/06/14 07:48:11;;;;;;;5.75;2.85;;;20.30;62.90;;;;;;5049006;28;20106;-76
2021/06/14 07:50:38;;;;;;;9.15;3.60;;;20.40;62.80;;;;;;5049996;28;20027;-76
2021/06/14 07:53:05;;;;;;;5.55;2.70;;;20.40;62.40;;;;;;5048922;28;20022;-77
2021/06/14 07:55:32;;;;;;;7.32;3.03;;;20.40;62.40;;;;;;5050015;28;20029;-77
2021/06/14 07:57:58;;;;;;;6.25;2.30;;;20.50;62.50;;;;;;5048423;28;20052;-76
2021/06/14 08:00:24;;;;;;;7.90;2.83;;;20.50;62.50;;;;;;5049794;28;20380;-76
2021/06/14 08:02:50;;;;;;;8.18;3.15;;;20.60;62.50;;;;;;5048224;28;20033;-76
2021/06/14 08:05:16;;;;;;;6.78;3.25;;;20.60;62.70;;;;;;5048500;28;20029;-76
2021/06/14 08:07:42;;;;;;;8.20;3.33;;;20.60;62.70;;;;;;5049458;28;20037;-75
2021/06/14 08:10:13;;;;;;;6.55;3.00;;;20.70;62.70;;;;;;5050242;28;20056;-76
2021/06/14 08:12:44;;;;;;;5.22;2.47;;;20.80;62.70;;;;;;5048535;28;20023;-76
2021/06/14 08:15:12;;;;;;;9.02;3.40;;;20.80;62.60;;;;;;5048623;28;20036;-76
2021/06/14 08:17:38;;;;;;;7.97;3.03;;;20.90;62.80;;;;;;5047915;28;20025;-76
2021/06/14 08:27:36;;;;;;;6.88;2.50;;;21.10;60.90;;;;;;5049280;28;20469;-77
2021/06/14 08:30:06;;;;;;;6.38;2.63;;;21.20;60.70;;;;;;5051169;28;20059;-77
2021/06/14 08:32:32;;;;;;;3.80;2.63;;;21.30;60.40;;;;;;5048582;28;20037;-76
2021/06/14 08:34:57;;;;;;;5.30;2.47;;;21.30;60.30;;;;;;5050173;28;20031;-77
2021/06/14 08:37:23;;;;;;;7.35;2.60;;;21.40;60.00;;;;;;5047854;28;20029;-76
2021/06/14 08:39:49;;;;;;;7.88;2.75;;;21.40;58.40;;;;;;5047672;28;20017;-76
2021/06/14 08:42:15;;;;;;;5.88;2.67;;;21.50;58.00;;;;;;5049499;28;20041;-76
2021/06/14 08:44:42;;;;;;;6.18;2.88;;;21.50;57.50;;;;;;5047433;28;20025;-76
2021/06/14 08:47:08;;;;;;;6.70;2.60;;;21.60;57.30;;;;;;5048104;28;20029;-77
2021/06/14 08:49:35;;;;;;;6.43;2.70;;;21.70;56.80;;;;;;5047188;28;20457;-76
2021/06/14 08:52:02;;;;;;;4.47;2.13;;;21.70;56.30;;;;;;5047846;28;20465;-76
2021/06/14 08:54:28;;;;;;;5.13;2.70;;;21.80;54.90;;;;;;5049257;28;20017;-77
2021/06/14 08:56:54;;;;;;;4.63;2.20;;;21.80;54.20;;;;;;5047292;28;20480;-76
2021/06/14 08:59:20;;;;;;;5.97;2.58;;;21.90;54.40;;;;;;5049390;28;20021;-76
2021/06/14 09:01:46;;;;;;;7.47;2.90;;;21.90;54.10;;;;;;5047301;28;20659;-77
2021/06/14 09:04:12;;;;;;;6.95;2.67;;;22.00;54.00;;;;;;5048797;28;20026;-77
2021/06/14 09:06:37;;;;;;;7.78;2.65;;;22.10;54.00;;;;;;5048437;28;20113;-75
2021/06/14 09:09:09;;;;;;;6.53;2.15;;;22.20;53.70;;;;;;5049481;28;20036;-76
2021/06/14 09:11:38;;;;;;;7.13;3.00;;;22.30;53.80;;;;;;5048947;28;20043;-77
2021/06/14 09:14:15;;;;;;;5.80;2.60;;;22.30;52.90;;;;;;5049079;28;20068;-76
2021/06/14 09:16:41;;;;;;;8.57;2.67;;;22.40;52.60;;;;;;5048209;28;20381;-77
2021/06/14 09:19:32;;;;;;;5.45;2.38;;;22.40;52.60;;;;;;5047769;28;20029;-77
2021/06/14 09:22:15;;;;;;;9.57;2.95;;;22.40;52.90;;;;;;5048489;28;20112;-76
2021/06/14 09:24:56;;;;;;;5.47;2.58;;;22.50;53.30;;;;;;5050679;28;20029;-76
2021/06/14 09:27:37;;;;;;;6.32;2.65;;;22.50;50.70;;;;;;5055133;28;20043;-76
2021/06/14 09:30:24;;;;;;;5.07;2.38;;;22.60;50.10;;;;;;5053680;28;20029;-76
2021/06/14 09:33:06;;;;;;;6.93;2.70;;;22.70;49.90;;;;;;5053878;28;20339;-77
2021/06/14 09:35:36;;;;;;;4.38;2.80;;;22.70;48.70;;;;;;5054560;28;20431;-77
2021/06/14 09:38:08;;;;;;;7.22;3.40;;;22.80;48.70;;;;;;5053422;28;20053;-77
2021/06/14 09:40:48;;;;;;;4.80;2.42;;;22.80;48.50;;;;;;5054800;28;20021;-76
2021/06/14 09:43:41;;;;;;;6.30;2.85;;;22.90;48.70;;;;;;5053091;28;20041;-76
2021/06/14 09:46:22;;;;;;;5.78;3.00;;;22.90;48.40;;;;;;5052017;28;20044;-76
2021/06/14 09:48:50;;;;;;;9.43;3.15;;;23.10;48.50;;;;;;5052751;28;20056;-77
2021/06/14 09:51:16;;;;;;;9.30;3.45;;;23.20;48.30;;;;;;5054658;28;20035;-76
2021/06/14 09:53:51;;;;;;;8.25;3.25;;;23.30;47.50;;;;;;5052811;28;20189;-77
2021/06/14 09:56:20;;;;;;;6.72;3.33;;;23.40;47.40;;;;;;5053299;28;20036;-77
2021/06/14 09:58:48;;;;;;;7.38;3.03;;;23.50;47.00;;;;;;5053887;28;20035;-76
2021/06/14 10:01:21;;;;;;;7.18;3.97;;;23.50;46.60;;;;;;5053143;28;20021;-76
2021/06/14 10:03:47;;;;;;;6.65;3.42;;;23.50;45.70;;;;;;5053676;28;20109;-77
2021/06/14 10:06:14;;;;;;;17.17;6.20;;;23.60;46.40;;;;;;5053117;28;20021;-77
2021/06/14 10:08:46;;;;;;;9.20;4.28;;;23.60;46.20;;;;;;5052373;28;20052;-77
2021/06/14 10:11:17;;;;;;;10.15;4.82;;;23.60;46.20;;;;;;5052786;28;20033;-76
2021/06/14 10:13:45;;;;;;;11.60;5.03;;;23.70;46.40;;;;;;5052352;28;20027;-76
2021/06/14 10:16:20;;;;;;;10.43;4.60;;;23.70;46.30;;;;;;5052830;28;20169;-77
2021/06/14 10:18:55;;;;;;;8.18;4.43;;;23.80;45.90;;;;;;5053382;28;20075;-76
2021/06/14 10:21:29;;;;;;;8.98;5.10;;;23.90;45.80;;;;;;5052969;28;20079;-77
2021/06/14 10:23:58;;;;;;;11.50;4.53;;;24.00;45.80;;;;;;5053503;28;20103;-77
2021/06/14 10:26:25;;;;;;;13.90;4.40;;;24.00;44.90;;;;;;5054042;28;20450;-77
2021/06/14 10:28:51;;;;;;;8.45;4.68;;;24.00;44.80;;;;;;5053381;28;20013;-76
2021/06/14 10:31:18;;;;;;;6.97;3.58;;;24.10;44.80;;;;;;5052133;28;20033;-76
2021/06/14 10:33:48;;;;;;;9.70;4.65;;;24.20;44.90;;;;;;5053477;28;20083;-77
2021/06/14 10:36:15;;;;;;;11.77;4.88;;;24.20;44.30;;;;;;5053460;28;20120;-78
2021/06/14 10:38:46;;;;;;;9.45;5.03;;;24.30;44.20;;;;;;5053204;28;20060;-77
2021/06/14 10:41:12;;;;;;;6.90;4.10;;;24.40;44.50;;;;;;5053444;28;20029;-77
2021/06/14 10:43:39;;;;;;;8.60;4.30;;;24.50;44.20;;;;;;5054120;28;20085;-77
2021/06/14 10:46:10;;;;;;;7.95;4.70;;;24.50;42.10;;;;;;5052248;28;20025;-77
2021/06/14 10:48:37;;;;;;;7.18;3.90;;;24.60;41.40;;;;;;5053978;28;20141;-76
2021/06/14 10:51:11;;;;;;;8.05;4.22;;;24.60;42.00;;;;;;5051437;28;20052;-76
2021/06/14 10:53:36;;;;;;;10.90;4.22;;;24.70;41.80;;;;;;5052263;28;20017;-76
2021/06/14 10:56:03;;;;;;;6.80;3.53;;;24.70;41.80;;;;;;5051250;28;20025;-76
2021/06/14 10:58:30;;;;;;;5.65;3.50;;;24.80;42.30;;;;;;5051949;28;20492;-77
2021/06/14 11:01:01;;;;;;;8.45;5.03;;;24.80;42.50;;;;;;5052719;28;20052;-76
2021/06/14 11:03:47;;;;;;;8.35;4.65;;;24.90;42.70;;;;;;5052280;28;20381;-76
2021/06/14 11:06:23;;;;;;;9.05;4.35;;;25.10;42.20;;;;;;5052852;28;20476;-77
2021/06/14 11:09:15;;;;;;;10.18;3.90;;;25.10;41.80;;;;;;5052667;28;20017;-76
2021/06/14 11:11:57;;;;;;;8.02;3.92;;;25.20;41.90;;;;;;5049271;28;20033;-78
2021/06/14 11:14:32;;;;;;;11.85;4.72;;;25.30;42.10;;;;;;5051866;28;20021;-77
2021/06/14 11:17:15;;;;;;;7.60;3.85;;;25.40;41.60;;;;;;5052211;28;20112;-76
2021/06/14 11:19:41;;;;;;;9.98;4.55;;;25.50;41.60;;;;;;5051637;28;20473;-76
2021/06/14 11:22:07;;;;;;;10.35;3.72;;;25.60;41.60;;;;;;5051623;28;20108;-77
2021/06/14 11:24:38;;;;;;;8.23;4.03;;;25.70;41.70;;;;;;5051359;28;20070;-77
2021/06/14 11:27:08;;;;;;;8.02;3.70;;;25.90;41.50;;;;;;5052229;28;20139;-77
2021/06/14 11:29:45;;;;;;;8.80;4.15;;;26.00;41.50;;;;;;5052683;28;20373;-77
2021/06/14 11:32:18;;;;;;;10.38;4.30;;;26.20;41.30;;;;;;5052929;28;20033;-77
2021/06/14 11:34:45;;;;;;;7.53;3.88;;;26.30;40.60;;;;;;5052294;28;20029;-77
2021/06/14 11:37:12;;;;;;;7.70;3.42;;;26.40;40.70;;;;;;5051249;28;20128;-76
2021/06/14 11:39:38;;;;;;;9.18;4.40;;;26.60;41.10;;;;;;5051265;28;20044;-77
2021/06/14 11:42:08;;;;;;;6.70;3.92;;;26.70;41.20;;;;;;5050338;28;20441;-76
2021/06/14 11:44:34;;;;;;;9.30;4.13;;;26.90;41.10;;;;;;5051239;28;20032;-76
2021/06/14 11:47:15;;;;;;;7.03;4.07;;;27.00;41.10;;;;;;5049917;28;20033;-77
2021/06/14 11:49:43;;;;;;;7.88;3.65;;;27.10;40.60;;;;;;5051356;28;20025;-76
2021/06/14 11:52:19;;;;;;;10.77;3.78;;;27.20;40.70;;;;;;5051251;28;20418;-76
2021/06/14 11:54:46;;;;;;;7.60;3.65;;;27.40;40.50;;;;;;5051856;28;20048;-78
2021/06/14 11:57:12;;;;;;;4.65;2.78;;;27.40;40.70;;;;;;5051261;28;20260;-77
2021/06/14 11:59:37;;;;;;;5.50;2.75;;;27.50;40.80;;;;;;5052463;28;20125;-75
2021/06/14 12:02:17;;;;;;;7.28;2.70;;;27.60;40.60;;;;;;5050784;28;20032;-77
2021/06/14 12:04:50;;;;;;;7.10;2.92;;;27.80;40.10;;;;;;5051430;28;20437;-76
2021/06/14 12:07:43;;;;;;;5.90;2.78;;;27.90;39.30;;;;;;5051095;28;20028;-77
2021/06/14 12:10:13;;;;;;;5.97;2.60;;;27.90;40.20;;;;;;5050171;28;20017;-77
2021/06/14 12:12:39;;;;;;;7.45;2.95;;;28.00;39.20;;;;;;5052149;28;20021;-77
2021/06/14 12:15:07;;;;;;;5.53;3.17;;;28.00;39.10;;;;;;5051289;28;20114;-77
2021/06/14 12:17:35;;;;;;;7.18;2.97;;;28.10;39.60;;;;;;5050362;28;20033;-78
2021/06/14 12:20:04;;;;;;;6.65;2.88;;;28.20;39.70;;;;;;5051380;28;20510;-77
2021/06/14 12:22:30;;;;;;;5.75;2.78;;;28.30;40.00;;;;;;5050710;28;20021;-77
2021/06/14 12:25:04;;;;;;;5.72;3.10;;;28.40;39.90;;;;;;5049728;28;20055;-77
2021/06/14 12:27:29;;;;;;;6.65;3.00;;;28.50;39.80;;;;;;5050544;28;20029;-77
2021/06/14 12:30:01;;;;;;;6.65;3.10;;;28.60;39.90;;;;;;5049808;28;20381;-78
2021/06/14 12:32:29;;;;;;;8.45;2.85;;;28.70;39.60;;;;;;5050649;28;20025;-77
2021/06/14 12:35:02;;;;;;;6.88;2.83;;;28.80;39.00;;;;;;5049611;28;20409;-76
2021/06/14 12:37:29;;;;;;;5.88;2.72;;;28.90;39.30;;;;;;5050400;28;20040;-77
2021/06/14 12:40:06;;;;;;;4.63;2.63;;;28.90;39.50;;;;;;5051190;28;20473;-77
2021/06/14 12:42:33;;;;;;;7.15;2.75;;;29.00;39.20;;;;;;5051863;28;20052;-77
2021/06/14 12:45:04;;;;;;;6.07;2.90;;;29.00;39.30;;;;;;5050821;28;20469;-78
2021/06/14 12:47:31;;;;;;;8.05;3.35;;;29.10;39.20;;;;;;5051808;28;20028;-77
2021/06/14 12:50:01;;;;;;;5.85;2.60;;;29.20;38.90;;;;;;5050819;28;20029;-77
2021/06/14 12:52:30;;;;;;;6.37;2.70;;;29.30;39.20;;;;;;5051766;28;20048;-76
2021/06/14 12:54:56;;;;;;;5.80;2.63;;;29.40;39.00;;;;;;5051144;28;20754;-77
2021/06/14 12:57:32;;;;;;;4.57;2.42;;;29.60;38.30;;;;;;5050137;28;20037;-77
2021/06/14 12:59:58;;;;;;;7.60;3.03;;;29.60;38.20;;;;;;5054659;28;20025;-76
2021/06/14 13:02:24;;;;;;;6.10;2.65;;;29.80;38.00;;;;;;5054163;28;20021;-77